createdAt,value
2019-05-22T00:00:19.375Z,16.00
2019-05-22T00:01:19.413Z,16.00
2019-05-22T00:02:19.369Z,16.00
2019-05-22T00:03:19.345Z,16.00
2019-05-22T00:04:19.335Z,16.00
2019-05-22T00:05:19.344Z,16.00
2019-05-22T00:06:19.327Z,16.00
2019-05-22T00:07:20.444Z,16.00
2019-05-22T00:08:19.298Z,20.00
2019-05-22T00:09:19.281Z,16.00
2019-05-22T00:10:19.285Z,20.00
2019-05-22T00:11:19.254Z,16.00
2019-05-22T00:12:19.331Z,16.00
2019-05-22T00:13:19.271Z,16.00
2019-05-22T00:14:19.505Z,16.00
2019-05-22T00:15:19.214Z,16.00
2019-05-22T00:16:19.203Z,16.00
2019-05-22T00:17:19.904Z,20.00
2019-05-22T00:18:19.183Z,16.00
2019-05-22T00:19:19.295Z,16.00
2019-05-22T00:20:19.154Z,20.00
2019-05-22T00:21:19.425Z,16.00
2019-05-22T00:22:19.141Z,16.00
2019-05-22T00:23:19.123Z,16.00
2019-05-22T00:24:19.125Z,16.00
2019-05-22T00:25:19.143Z,20.00
2019-05-22T00:26:19.102Z,16.00
2019-05-22T00:27:19.083Z,16.00
2019-05-22T00:28:19.357Z,16.00
2019-05-22T00:29:19.063Z,16.00
2019-05-22T00:30:19.053Z,20.00
2019-05-22T00:31:19.083Z,16.00
2019-05-22T00:32:19.047Z,20.00
2019-05-22T00:33:19.033Z,16.00
2019-05-22T00:34:19.005Z,20.00
2019-05-22T00:35:19.281Z,16.00
2019-05-22T00:36:18.983Z,16.00
2019-05-22T00:37:19.021Z,16.00
2019-05-22T00:38:18.964Z,16.00
2019-05-22T00:39:18.951Z,16.00
2019-05-22T00:40:18.941Z,16.00
2019-05-22T00:41:18.923Z,16.00
2019-05-22T00:42:19.193Z,16.00
2019-05-22T00:43:18.953Z,16.00
2019-05-22T00:44:18.892Z,16.00
2019-05-22T00:45:18.930Z,16.00
2019-05-22T00:46:18.872Z,16.00
2019-05-22T00:47:18.863Z,20.00
2019-05-22T00:48:18.852Z,16.00
2019-05-22T00:49:19.166Z,16.00
2019-05-22T00:50:18.841Z,16.00
2019-05-22T00:51:18.813Z,16.00
2019-05-22T00:52:18.810Z,16.00
2019-05-22T00:53:18.793Z,16.00
2019-05-22T00:54:18.800Z,16.00
2019-05-22T00:55:18.822Z,16.00
2019-05-22T00:56:18.770Z,16.00
2019-05-22T00:57:18.751Z,16.00
2019-05-22T00:58:18.849Z,20.00
2019-05-22T00:59:18.741Z,16.00
2019-05-22T01:00:18.714Z,16.00
2019-05-22T01:01:18.900Z,16.00
2019-05-22T01:02:18.755Z,16.00
2019-05-22T01:03:18.741Z,20.00
2019-05-22T01:04:18.738Z,16.00
2019-05-22T01:05:18.712Z,16.00
2019-05-22T01:06:19.808Z,16.00
2019-05-22T01:07:18.980Z,20.00
2019-05-22T01:08:18.642Z,16.00
2019-05-22T01:09:18.615Z,20.00
2019-05-22T01:10:18.611Z,16.00
2019-05-22T01:11:18.606Z,16.00
2019-05-22T01:12:18.589Z,16.00
2019-05-22T01:13:18.621Z,20.00
2019-05-22T01:14:18.563Z,20.00
2019-05-22T01:15:18.554Z,20.00
2019-05-22T01:16:18.573Z,20.00
2019-05-22T01:17:18.531Z,16.00
2019-05-22T01:18:18.521Z,20.00
2019-05-22T01:19:18.861Z,16.00
2019-05-22T01:20:18.500Z,16.00
2019-05-22T01:21:18.511Z,16.00
2019-05-22T01:22:18.493Z,20.00
2019-05-22T01:23:18.470Z,16.00
2019-05-22T01:24:18.461Z,16.00
2019-05-22T01:25:18.480Z,16.00
2019-05-22T01:26:18.441Z,16.00
2019-05-22T01:27:18.428Z,16.00
2019-05-22T01:28:18.410Z,20.00
2019-05-22T01:29:18.400Z,16.00
2019-05-22T01:30:18.390Z,16.00
2019-05-22T01:31:18.419Z,16.00
2019-05-22T01:32:18.370Z,20.00
2019-05-22T01:33:18.359Z,16.00
2019-05-22T01:34:18.350Z,20.00
2019-05-22T01:35:18.370Z,20.00
2019-05-22T01:36:18.851Z,20.00
2019-05-22T01:37:19.472Z,20.00
2019-05-22T01:38:18.877Z,20.00
2019-05-22T01:39:18.299Z,16.00
2019-05-22T01:40:18.289Z,16.00
2019-05-22T01:41:18.285Z,20.00
2019-05-22T01:42:18.269Z,16.00
2019-05-22T01:43:18.290Z,16.00
2019-05-22T01:44:18.529Z,16.00
2019-05-22T01:45:18.238Z,16.00
2019-05-22T01:46:18.231Z,20.00
2019-05-22T01:47:18.209Z,20.00
2019-05-22T01:48:18.207Z,16.00
2019-05-22T01:49:18.239Z,20.00
2019-05-22T01:50:18.179Z,16.00
2019-05-22T01:51:18.458Z,16.00
2019-05-22T01:52:18.160Z,16.00
2019-05-22T01:53:18.174Z,16.00
2019-05-22T01:54:18.151Z,16.00
2019-05-22T01:55:18.201Z,16.00
2019-05-22T01:56:18.119Z,16.00
2019-05-22T01:57:18.798Z,16.00
2019-05-22T01:58:18.414Z,16.00
2019-05-22T01:59:18.089Z,20.00
2019-05-22T02:01:41.195Z,16.00
2019-05-22T02:02:39.857Z,20.00
2019-05-22T02:03:39.858Z,20.00
2019-05-22T02:04:39.845Z,16.00
2019-05-22T02:05:39.834Z,16.00
2019-05-22T02:06:39.829Z,20.00
2019-05-22T02:07:39.848Z,16.00
2019-05-22T02:08:39.807Z,16.00
2019-05-22T02:09:39.815Z,16.00
2019-05-22T02:10:39.780Z,16.00
2019-05-22T02:11:39.785Z,16.00
2019-05-22T02:12:39.755Z,16.00
2019-05-22T02:13:40.065Z,16.00
2019-05-22T02:14:41.469Z,16.00
2019-05-22T02:15:39.745Z,16.00
2019-05-22T02:16:55.502Z,16.00
2019-05-22T02:17:40.710Z,16.00
2019-05-22T02:18:39.704Z,16.00
2019-05-22T02:19:39.771Z,16.00
2019-05-22T02:20:39.675Z,16.00
2019-05-22T02:21:39.667Z,16.00
2019-05-22T02:22:39.654Z,16.00
2019-05-22T02:23:39.646Z,16.00
2019-05-22T02:24:39.636Z,16.00
2019-05-22T02:25:40.914Z,16.00
2019-05-22T02:26:39.617Z,16.00
2019-05-22T02:27:39.602Z,16.00
2019-05-22T02:28:39.595Z,16.00
2019-05-22T02:29:39.577Z,16.00
2019-05-22T02:30:39.604Z,16.00
2019-05-22T02:31:39.607Z,16.00
2019-05-22T02:32:39.544Z,16.00
2019-05-22T02:33:39.534Z,16.00
2019-05-22T02:34:39.538Z,16.00
2019-05-22T02:35:39.525Z,16.00
2019-05-22T02:36:39.508Z,16.00
2019-05-22T02:37:39.847Z,16.00
2019-05-22T02:38:39.484Z,16.00
2019-05-22T02:39:39.472Z,16.00
2019-05-22T02:40:39.471Z,16.00
2019-05-22T02:41:39.452Z,16.00
2019-05-22T02:42:39.435Z,16.00
2019-05-22T02:43:39.467Z,16.00
2019-05-22T02:44:39.415Z,16.00
2019-05-22T02:45:39.407Z,16.00
2019-05-22T02:46:39.395Z,16.00
2019-05-22T02:47:39.393Z,16.00
2019-05-22T02:48:42.307Z,16.00
2019-05-22T02:49:39.687Z,16.00
2019-05-22T02:50:40.531Z,16.00
2019-05-22T02:51:39.344Z,20.00
2019-05-22T02:52:39.335Z,16.00
2019-05-22T02:53:39.321Z,16.00
2019-05-22T02:54:39.857Z,20.00
2019-05-22T02:55:40.883Z,16.00
2019-05-22T02:56:39.294Z,16.00
2019-05-22T02:57:39.293Z,20.00
2019-05-22T02:58:39.272Z,20.00
2019-05-22T02:59:39.253Z,16.00
2019-05-22T03:00:39.242Z,24.00
2019-05-22T03:01:39.280Z,24.00
2019-05-22T03:02:39.221Z,24.00
2019-05-22T03:03:39.214Z,24.00
2019-05-22T03:04:39.203Z,24.00
2019-05-22T03:05:39.224Z,24.00
2019-05-22T03:06:39.191Z,24.00
2019-05-22T03:07:39.512Z,28.00
2019-05-22T03:08:39.161Z,28.00
2019-05-22T03:09:39.157Z,24.00
2019-05-22T03:10:39.142Z,24.00
2019-05-22T03:11:39.139Z,28.00
2019-05-22T03:12:39.115Z,32.00
2019-05-22T03:13:39.632Z,28.00
2019-05-22T03:14:39.379Z,32.00
2019-05-22T03:15:39.082Z,28.00
2019-05-22T03:16:39.072Z,28.00
2019-05-22T03:17:39.068Z,28.00
2019-05-22T03:18:39.063Z,20.00
2019-05-22T03:19:39.094Z,24.00
2019-05-22T03:20:39.040Z,24.00
2019-05-22T03:21:39.302Z,12.00
2019-05-22T03:22:39.020Z,12.00
2019-05-22T03:23:39.005Z,16.00
2019-05-22T03:24:38.999Z,16.00
2019-05-22T03:25:39.045Z,16.00
2019-05-22T03:26:38.972Z,16.00
2019-05-22T03:27:38.960Z,16.00
2019-05-22T03:28:39.237Z,16.00
2019-05-22T03:29:38.950Z,16.00
2019-05-22T03:30:38.930Z,20.00
2019-05-22T03:31:39.670Z,24.00
2019-05-22T03:32:43.360Z,24.00
2019-05-22T03:33:39.900Z,28.00
2019-05-22T03:34:38.890Z,28.00
2019-05-22T03:35:39.166Z,28.00
2019-05-22T03:36:38.872Z,32.00
2019-05-22T03:37:38.898Z,36.00
2019-05-22T03:38:38.840Z,36.00
2019-05-22T03:39:38.841Z,40.00
2019-05-22T03:40:38.827Z,44.00
2019-05-22T03:41:39.100Z,40.00
2019-05-22T03:42:38.805Z,44.00
2019-05-22T03:43:38.837Z,48.00
2019-05-22T03:44:38.786Z,60.00
2019-05-22T03:45:38.781Z,72.00
2019-05-22T03:46:38.769Z,68.00
2019-05-22T03:47:38.753Z,72.00
2019-05-22T03:48:38.747Z,72.00
2019-05-22T03:49:38.810Z,72.00
2019-05-22T03:50:38.728Z,72.00
2019-05-22T03:51:38.717Z,64.00
2019-05-22T03:52:38.699Z,64.00
2019-05-22T03:53:38.979Z,76.00
2019-05-22T03:54:38.679Z,68.00
2019-05-22T03:55:38.705Z,68.00
2019-05-22T03:56:38.658Z,72.00
2019-05-22T03:57:38.649Z,80.00
2019-05-22T03:58:38.638Z,76.00
2019-05-22T03:59:38.630Z,80.00
2019-05-22T04:00:43.005Z,96.00
2019-05-22T04:01:39.638Z,88.00
2019-05-22T04:02:38.597Z,80.00
2019-05-22T04:03:38.617Z,84.00
2019-05-22T04:04:38.578Z,76.00
2019-05-22T04:05:39.419Z,76.00
2019-05-22T04:06:38.586Z,76.00
2019-05-22T04:07:38.594Z,80.00
2019-05-22T04:08:38.541Z,68.00
2019-05-22T04:09:38.530Z,116.00
2019-05-22T04:10:40.990Z,112.00
2019-05-22T04:11:38.507Z,136.00
2019-05-22T04:12:38.497Z,140.00
2019-05-22T04:13:38.529Z,152.00
2019-05-22T04:14:38.517Z,148.00
2019-05-22T04:15:38.472Z,140.00
2019-05-22T04:16:38.447Z,144.00
2019-05-22T04:17:38.756Z,140.00
2019-05-22T04:18:38.433Z,140.00
2019-05-22T04:19:49.674Z,140.00
2019-05-22T04:20:40.411Z,148.00
2019-05-22T04:21:38.409Z,148.00
2019-05-22T04:22:38.391Z,152.00
2019-05-22T04:23:38.469Z,140.00
2019-05-22T04:24:38.404Z,148.00
2019-05-22T04:25:39.157Z,140.00
2019-05-22T04:26:38.356Z,152.00
2019-05-22T04:27:38.341Z,172.00
2019-05-22T04:28:38.906Z,160.00
2019-05-22T04:29:38.604Z,148.00
2019-05-22T04:30:38.304Z,156.00
2019-05-22T04:31:38.336Z,144.00
2019-05-22T04:32:38.285Z,152.00
2019-05-22T04:33:38.275Z,164.00
2019-05-22T04:34:38.445Z,156.00
2019-05-22T04:35:38.476Z,152.00
2019-05-22T04:36:38.988Z,164.00
2019-05-22T04:37:38.788Z,172.00
2019-05-22T04:38:38.461Z,184.00
2019-05-22T04:39:38.435Z,196.00
2019-05-22T04:40:38.210Z,204.00
2019-05-22T04:41:38.184Z,212.00
2019-05-22T04:42:38.183Z,216.00
2019-05-22T04:43:38.565Z,220.00
2019-05-22T04:44:38.160Z,228.00
2019-05-22T04:45:38.156Z,220.00
2019-05-22T04:46:38.615Z,212.00
2019-05-22T04:47:38.134Z,232.00
2019-05-22T04:48:38.265Z,240.00
2019-05-22T04:49:38.148Z,224.00
2019-05-22T04:50:38.382Z,224.00
2019-05-22T04:51:38.094Z,220.00
2019-05-22T04:52:38.100Z,224.00
2019-05-22T04:53:38.064Z,232.00
2019-05-22T04:54:38.069Z,268.00
2019-05-22T04:55:38.105Z,284.00
2019-05-22T04:56:38.035Z,320.00
2019-05-22T04:57:39.454Z,380.00
2019-05-22T04:58:38.021Z,384.00
2019-05-22T04:59:38.013Z,376.00
2019-05-22T05:00:38.499Z,348.00
2019-05-22T05:01:38.113Z,384.00
2019-05-22T05:02:37.984Z,384.00
2019-05-22T05:03:38.015Z,376.00
2019-05-22T05:04:38.233Z,380.00
2019-05-22T05:05:37.948Z,368.00
2019-05-22T05:06:37.933Z,368.00
2019-05-22T05:07:37.961Z,392.00
2019-05-22T05:08:37.912Z,428.00
2019-05-22T05:09:37.921Z,424.00
2019-05-22T05:10:37.893Z,424.00
2019-05-22T05:11:38.161Z,440.00
2019-05-22T05:12:37.882Z,432.00
2019-05-22T05:13:37.903Z,440.00
2019-05-22T05:14:37.864Z,404.00
2019-05-22T05:15:37.843Z,396.00
2019-05-22T05:16:37.827Z,364.00
2019-05-22T05:17:37.838Z,364.00
2019-05-22T05:18:37.802Z,380.00
2019-05-22T05:19:38.821Z,364.00
2019-05-22T05:20:37.809Z,388.00
2019-05-22T05:21:37.772Z,364.00
2019-05-22T05:22:37.778Z,356.00
2019-05-22T05:23:38.219Z,336.00
2019-05-22T05:24:37.758Z,364.00
2019-05-22T05:25:37.812Z,428.00
2019-05-22T05:26:37.769Z,424.00
2019-05-22T05:27:37.711Z,396.00
2019-05-22T05:28:37.735Z,384.00
2019-05-22T05:29:37.720Z,392.00
2019-05-22T05:30:37.689Z,404.00
2019-05-22T05:31:38.966Z,432.00
2019-05-22T05:32:38.010Z,452.00
2019-05-22T05:33:37.668Z,480.00
2019-05-22T05:34:37.639Z,448.00
2019-05-22T05:35:38.771Z,432.00
2019-05-22T05:36:37.901Z,436.00
2019-05-22T05:37:37.655Z,464.00
2019-05-22T05:38:37.611Z,568.00
2019-05-22T05:39:37.614Z,596.00
2019-05-22T05:40:37.595Z,564.00
2019-05-22T05:41:37.950Z,540.00
2019-05-22T05:42:37.572Z,484.00
2019-05-22T05:43:37.649Z,452.00
2019-05-22T05:44:38.549Z,440.00
2019-05-22T05:45:37.523Z,464.00
2019-05-22T05:46:37.520Z,484.00
2019-05-22T05:47:37.523Z,476.00
2019-05-22T05:48:37.510Z,536.00
2019-05-22T05:49:37.517Z,536.00
2019-05-22T05:50:39.917Z,496.00
2019-05-22T05:51:37.462Z,452.00
2019-05-22T05:52:37.477Z,580.00
2019-05-22T05:53:37.441Z,636.00
2019-05-22T05:54:37.430Z,672.00
2019-05-22T05:55:37.928Z,708.00
2019-05-22T05:56:37.683Z,636.00
2019-05-22T05:57:37.406Z,672.00
2019-05-22T05:58:37.397Z,632.00
2019-05-22T05:59:37.840Z,680.00
2019-05-22T06:00:37.380Z,720.00
2019-05-22T06:01:37.559Z,820.00
2019-05-22T06:02:37.369Z,904.00
2019-05-22T06:03:38.289Z,836.00
2019-05-22T06:04:37.367Z,780.00
2019-05-22T06:05:37.338Z,872.00
2019-05-22T06:06:37.323Z,872.00
2019-05-22T06:07:37.343Z,788.00
2019-05-22T06:08:38.288Z,720.00
2019-05-22T06:09:37.790Z,604.00
2019-05-22T06:10:37.305Z,664.00
2019-05-22T06:11:37.309Z,664.00
2019-05-22T06:12:38.196Z,708.00
2019-05-22T06:13:38.078Z,736.00
2019-05-22T06:14:37.283Z,744.00
2019-05-22T06:15:46.523Z,748.00
2019-05-22T06:16:38.216Z,804.00
2019-05-22T06:17:37.258Z,804.00
2019-05-22T06:18:37.208Z,756.00
2019-05-22T06:19:39.260Z,736.00
2019-05-22T06:20:37.158Z,704.00
2019-05-22T06:21:37.213Z,740.00
2019-05-22T06:22:37.557Z,748.00
2019-05-22T06:23:37.558Z,768.00
2019-05-22T06:24:37.568Z,828.00
2019-05-22T06:25:38.794Z,872.00
2019-05-22T06:26:38.510Z,944.00
2019-05-22T06:27:37.110Z,980.00
2019-05-22T06:28:37.077Z,948.00
2019-05-22T06:29:37.058Z,956.00
2019-05-22T06:30:37.067Z,976.00
2019-05-22T06:31:37.088Z,1016.00
2019-05-22T06:32:37.075Z,1032.00
2019-05-22T06:33:37.074Z,1024.00
2019-05-22T06:34:39.028Z,1092.00
2019-05-22T06:35:38.149Z,1040.00
2019-05-22T06:36:37.680Z,1060.00
2019-05-22T06:37:37.967Z,1100.00
2019-05-22T06:38:37.325Z,1164.00
2019-05-22T06:39:37.445Z,1060.00
2019-05-22T06:40:36.986Z,1092.00
2019-05-22T06:41:36.938Z,1124.00
2019-05-22T06:42:36.948Z,1400.00
2019-05-22T06:43:38.426Z,1272.00
2019-05-22T06:44:38.922Z,1176.00
2019-05-22T06:45:38.627Z,1232.00
2019-05-22T06:46:37.807Z,1128.00
2019-05-22T06:47:37.646Z,1128.00
2019-05-22T06:48:38.288Z,1140.00
2019-05-22T06:49:37.790Z,1096.00
2019-05-22T06:50:37.276Z,1060.00
2019-05-22T06:51:36.835Z,1120.00
2019-05-22T06:52:38.013Z,1220.00
2019-05-22T06:53:36.817Z,1348.00
2019-05-22T06:54:36.818Z,1304.00
2019-05-22T06:55:36.834Z,1184.00
2019-05-22T06:56:36.836Z,1092.00
2019-05-22T06:57:36.778Z,1068.00
2019-05-22T06:58:36.789Z,1032.00
2019-05-22T06:59:36.763Z,1036.00
2019-05-22T07:00:36.773Z,1068.00
2019-05-22T07:01:36.775Z,1092.00
2019-05-22T07:02:36.716Z,1064.00
2019-05-22T07:03:36.798Z,1080.00
2019-05-22T07:04:36.695Z,1076.00
2019-05-22T07:05:36.697Z,1112.00
2019-05-22T07:06:36.708Z,1136.00
2019-05-22T07:07:38.839Z,1140.00
2019-05-22T07:08:36.654Z,1192.00
2019-05-22T07:09:36.965Z,1168.00
2019-05-22T07:10:37.563Z,1144.00
2019-05-22T07:11:37.861Z,1180.00
2019-05-22T07:12:37.032Z,1208.00
2019-05-22T07:13:37.454Z,1164.00
2019-05-22T07:14:36.635Z,1260.00
2019-05-22T07:15:36.744Z,1328.00
2019-05-22T07:16:36.613Z,1584.00
2019-05-22T07:17:36.553Z,1664.00
2019-05-22T07:18:36.665Z,1584.00
2019-05-22T07:19:37.958Z,1684.00
2019-05-22T07:20:36.604Z,1740.00
2019-05-22T07:21:36.521Z,1768.00
2019-05-22T07:22:36.553Z,1820.00
2019-05-22T07:23:36.763Z,1724.00
2019-05-22T07:24:36.478Z,1920.00
2019-05-22T07:25:36.523Z,1956.00
2019-05-22T07:26:36.494Z,1968.00
2019-05-22T07:27:36.453Z,1968.00
2019-05-22T07:28:36.452Z,1832.00
2019-05-22T07:29:36.446Z,1940.00
2019-05-22T07:30:36.453Z,1856.00
2019-05-22T07:31:36.462Z,1916.00
2019-05-22T07:32:36.442Z,1792.00
2019-05-22T07:33:36.418Z,1816.00
2019-05-22T07:34:36.416Z,1708.00
2019-05-22T07:35:56.464Z,1660.00
2019-05-22T07:36:37.382Z,1736.00
2019-05-22T07:37:39.345Z,1860.00
2019-05-22T07:38:36.327Z,1872.00
2019-05-22T07:39:36.332Z,1920.00
2019-05-22T07:40:36.401Z,1996.00
2019-05-22T07:41:37.032Z,2092.00
2019-05-22T07:42:36.406Z,2128.00
2019-05-22T07:43:40.995Z,2100.00
2019-05-22T07:44:37.263Z,2116.00
2019-05-22T07:45:36.262Z,2168.00
2019-05-22T07:46:36.259Z,2056.00
2019-05-22T07:47:36.992Z,2088.00
2019-05-22T07:48:37.743Z,1768.00
2019-05-22T07:49:36.765Z,1944.00
2019-05-22T07:50:37.098Z,1992.00
2019-05-22T07:51:50.395Z,1976.00
2019-05-22T07:52:37.938Z,2004.00
2019-05-22T07:53:37.679Z,1888.00
2019-05-22T07:54:36.691Z,1860.00
2019-05-22T07:55:36.155Z,1924.00
2019-05-22T07:56:36.532Z,1936.00
2019-05-22T07:57:36.173Z,1856.00
2019-05-22T07:58:36.862Z,1836.00
2019-05-22T07:59:36.135Z,1716.00
2019-05-22T08:00:36.474Z,1584.00
2019-05-22T08:01:37.010Z,1580.00
2019-05-22T08:02:37.041Z,1508.00
2019-05-22T08:03:36.074Z,1612.00
2019-05-22T08:04:36.520Z,1732.00
2019-05-22T08:05:36.052Z,1848.00
2019-05-22T08:06:36.256Z,1788.00
2019-05-22T08:07:37.563Z,1756.00
2019-05-22T08:08:38.132Z,1680.00
2019-05-22T08:09:38.043Z,1608.00
2019-05-22T08:10:38.490Z,1560.00
2019-05-22T08:11:37.994Z,1540.00
2019-05-22T08:12:37.685Z,1584.00
2019-05-22T08:13:35.966Z,1620.00
2019-05-22T08:14:36.432Z,1736.00
2019-05-22T08:15:36.472Z,1732.00
2019-05-22T08:16:35.931Z,1896.00
2019-05-22T08:17:37.250Z,2064.00
2019-05-22T08:18:36.011Z,2168.00
2019-05-22T08:19:35.889Z,2196.00
2019-05-22T08:20:35.879Z,2832.00
2019-05-22T08:21:36.116Z,3540.00
2019-05-22T08:22:36.268Z,3772.00
2019-05-22T08:23:35.860Z,4324.00
2019-05-22T08:24:37.005Z,3820.00
2019-05-22T08:25:35.827Z,3908.00
2019-05-22T08:26:53.489Z,3704.00
2019-05-22T08:27:36.815Z,3396.00
2019-05-22T08:28:36.155Z,3488.00
2019-05-22T08:29:35.790Z,2956.00
2019-05-22T08:30:35.844Z,3008.00
2019-05-22T08:31:35.803Z,3552.00
2019-05-22T08:32:35.749Z,3016.00
2019-05-22T08:33:35.759Z,2736.00
2019-05-22T08:34:36.669Z,2852.00
2019-05-22T08:35:35.730Z,2592.00
2019-05-22T08:36:38.583Z,3032.00
2019-05-22T08:37:35.708Z,2376.00
2019-05-22T08:38:35.700Z,2896.00
2019-05-22T08:39:35.709Z,3152.00
2019-05-22T08:40:35.684Z,3052.00
2019-05-22T08:41:35.669Z,2628.00
2019-05-22T08:42:35.783Z,2548.00
2019-05-22T08:43:55.841Z,2640.00
2019-05-22T08:44:36.628Z,2652.00
2019-05-22T08:45:35.689Z,2668.00
2019-05-22T08:46:36.061Z,2444.00
2019-05-22T08:47:36.182Z,2380.00
2019-05-22T08:48:36.935Z,2560.00
2019-05-22T08:49:37.689Z,2816.00
2019-05-22T08:50:43.056Z,2852.00
2019-05-22T08:51:44.035Z,2684.00
2019-05-22T08:52:37.533Z,2696.00
2019-05-22T08:53:46.826Z,2736.00
2019-05-22T08:54:37.027Z,2604.00
2019-05-22T08:55:36.728Z,2616.00
2019-05-22T08:56:38.050Z,2776.00
2019-05-22T08:57:37.829Z,2644.00
2019-05-22T08:58:42.259Z,2556.00
2019-05-22T08:59:37.748Z,2556.00
2019-05-22T09:00:36.191Z,2656.00
2019-05-22T09:01:35.706Z,2484.00
2019-05-22T09:02:35.679Z,2604.00
2019-05-22T09:03:35.880Z,2804.00
2019-05-22T09:04:35.478Z,2816.00
2019-05-22T09:05:38.751Z,3028.00
2019-05-22T09:06:35.426Z,3136.00
2019-05-22T09:07:36.258Z,3388.00
2019-05-22T09:08:35.359Z,3548.00
2019-05-22T09:09:35.395Z,3504.00
2019-05-22T09:10:40.786Z,3564.00
2019-05-22T09:11:36.821Z,3500.00
2019-05-22T09:12:35.538Z,3584.00
2019-05-22T09:13:36.347Z,3436.00
2019-05-22T09:14:35.339Z,3544.00
2019-05-22T09:15:36.436Z,3772.00
2019-05-22T09:16:35.335Z,3808.00
2019-05-22T09:17:35.820Z,3588.00
2019-05-22T09:18:36.134Z,3356.00
2019-05-22T09:19:35.275Z,3300.00
2019-05-22T09:20:48.596Z,3236.00
2019-05-22T09:21:36.229Z,3192.00
2019-05-22T09:22:40.854Z,3076.00
2019-05-22T09:23:36.900Z,2972.00
2019-05-22T09:24:36.128Z,2912.00
2019-05-22T09:25:35.325Z,2844.00
2019-05-22T09:26:39.256Z,2940.00
2019-05-22T09:27:35.643Z,2928.00
2019-05-22T09:28:35.265Z,2956.00
2019-05-22T09:29:36.181Z,3296.00
2019-05-22T09:30:35.534Z,3488.00
2019-05-22T09:31:38.416Z,3712.00
2019-05-22T09:32:43.446Z,4104.00
2019-05-22T09:33:37.232Z,4668.00
2019-05-22T09:34:35.438Z,5160.00
2019-05-22T09:35:35.249Z,5388.00
2019-05-22T09:36:36.658Z,5292.00
2019-05-22T09:37:35.701Z,5032.00
2019-05-22T09:38:35.056Z,5040.00
2019-05-22T09:39:35.034Z,4676.00
2019-05-22T09:40:35.054Z,4816.00
2019-05-22T09:41:35.108Z,4832.00
2019-05-22T09:42:35.014Z,5092.00
2019-05-22T09:43:35.004Z,5300.00
2019-05-22T09:44:35.005Z,5452.00
2019-05-22T09:45:35.702Z,5628.00
2019-05-22T09:46:35.060Z,6204.00
2019-05-22T09:47:36.055Z,6924.00
2019-05-22T09:48:35.632Z,8096.00
2019-05-22T09:49:34.951Z,10052.00
2019-05-22T09:50:35.605Z,9460.00
2019-05-22T09:51:34.963Z,7784.00
2019-05-22T09:52:35.596Z,7240.00
2019-05-22T09:53:35.705Z,6768.00
2019-05-22T09:54:34.933Z,7560.00
2019-05-22T09:55:35.272Z,8244.00
2019-05-22T09:56:34.847Z,8252.00
2019-05-22T09:57:34.833Z,8136.00
2019-05-22T09:58:34.832Z,8024.00
2019-05-22T09:59:35.053Z,7152.00
2019-05-22T10:00:35.069Z,6116.00
2019-05-22T10:01:35.045Z,5028.00
2019-05-22T10:02:34.800Z,4292.00
2019-05-22T10:03:34.849Z,3856.00
2019-05-22T10:04:34.767Z,3620.00
2019-05-22T10:05:34.840Z,3572.00
2019-05-22T10:06:34.741Z,3516.00
2019-05-22T10:07:34.752Z,3480.00
2019-05-22T10:08:34.921Z,3384.00
2019-05-22T10:09:35.072Z,3576.00
2019-05-22T10:10:34.733Z,3784.00
2019-05-22T10:11:34.753Z,3668.00
2019-05-22T10:12:34.672Z,3336.00
2019-05-22T10:13:34.780Z,3248.00
2019-05-22T10:14:34.652Z,3376.00
2019-05-22T10:15:34.641Z,3836.00
2019-05-22T10:16:34.636Z,3780.00
2019-05-22T10:17:34.691Z,4084.00
2019-05-22T10:18:35.815Z,4596.00
2019-05-22T10:19:34.852Z,5040.00
2019-05-22T10:20:35.357Z,5364.00
2019-05-22T10:21:35.101Z,6148.00
2019-05-22T10:22:35.247Z,7112.00
2019-05-22T10:23:35.382Z,7724.00
2019-05-22T10:24:35.228Z,7820.00
2019-05-22T10:25:35.108Z,7860.00
2019-05-22T10:26:36.200Z,8144.00
2019-05-22T10:27:35.291Z,7996.00
2019-05-22T10:28:34.511Z,7472.00
2019-05-22T10:29:34.532Z,7272.00
2019-05-22T10:30:34.553Z,7216.00
2019-05-22T10:31:34.479Z,6992.00
2019-05-22T10:32:34.463Z,7068.00
2019-05-22T10:33:34.451Z,6520.00
2019-05-22T10:34:34.480Z,5436.00
2019-05-22T10:35:34.668Z,5480.00
2019-05-22T10:36:35.393Z,5396.00
2019-05-22T10:37:35.320Z,5368.00
2019-05-22T10:38:34.455Z,5188.00
2019-05-22T10:39:34.415Z,4948.00
2019-05-22T10:40:35.319Z,4492.00
2019-05-22T10:41:34.729Z,4576.00
2019-05-22T10:42:34.360Z,4432.00
2019-05-22T10:43:34.361Z,4508.00
2019-05-22T10:44:34.823Z,4408.00
2019-05-22T10:45:34.907Z,4508.00
2019-05-22T10:46:34.727Z,4724.00
2019-05-22T10:47:35.828Z,4956.00
2019-05-22T10:48:34.758Z,4160.00
2019-05-22T10:49:34.656Z,3576.00
2019-05-22T10:50:34.870Z,3360.00
2019-05-22T10:51:34.880Z,3316.00
2019-05-22T10:52:35.176Z,3336.00
2019-05-22T10:53:34.566Z,3564.00
2019-05-22T10:54:35.142Z,3824.00
2019-05-22T10:55:34.210Z,3568.00
2019-05-22T10:56:34.279Z,3376.00
2019-05-22T10:57:34.193Z,3416.00
2019-05-22T10:58:35.236Z,3532.00
2019-05-22T10:59:37.769Z,3820.00
2019-05-22T11:00:36.519Z,3984.00
2019-05-22T11:01:37.613Z,4112.00
2019-05-22T11:02:34.535Z,4376.00
2019-05-22T11:03:34.368Z,4744.00
2019-05-22T11:04:34.498Z,5008.00
2019-05-22T11:05:34.484Z,5632.00
2019-05-22T11:06:34.306Z,6620.00
2019-05-22T11:07:34.968Z,7580.00
2019-05-22T11:08:34.918Z,8600.00
2019-05-22T11:09:34.656Z,9580.00
2019-05-22T11:10:34.471Z,10064.00
2019-05-22T11:11:34.988Z,9304.00
2019-05-22T11:12:35.710Z,8380.00
2019-05-22T11:13:35.040Z,7564.00
2019-05-22T14:50:56.970Z,7464.00
2019-05-22T14:51:56.211Z,8252.00
2019-05-22T14:52:56.381Z,14280.00
2019-05-22T14:53:56.162Z,9592.00
2019-05-22T14:54:55.537Z,9028.00
2019-05-22T14:55:57.646Z,9012.00
2019-05-22T14:56:58.665Z,9008.00
2019-05-22T14:57:56.744Z,9984.00
2019-05-22T14:58:59.335Z,9628.00
2019-05-22T14:59:55.282Z,10704.00
2019-05-22T15:00:55.341Z,14204.00
2019-05-22T15:01:55.880Z,13344.00
2019-05-22T15:02:58.276Z,7656.00
2019-05-22T15:03:55.270Z,7304.00
2019-05-22T15:04:55.224Z,12056.00
2019-05-22T15:05:55.700Z,14276.00
2019-05-22T15:06:55.252Z,14640.00
2019-05-22T15:07:56.788Z,13884.00
2019-05-22T15:08:55.227Z,12516.00
2019-05-22T15:09:56.383Z,11664.00
2019-05-22T15:10:55.691Z,6088.00
2019-05-22T15:11:55.503Z,7084.00
2019-05-22T15:12:55.237Z,7812.00
2019-05-22T15:13:55.797Z,11728.00
2019-05-22T15:14:55.176Z,10704.00
2019-05-22T15:15:57.072Z,5220.00
2019-05-22T15:16:55.631Z,5272.00
2019-05-22T15:17:55.629Z,5080.00
2019-05-22T15:18:55.226Z,4912.00
2019-05-22T15:19:55.118Z,5032.00
2019-05-22T15:20:55.267Z,5696.00
2019-05-22T15:21:56.164Z,6344.00
2019-05-22T15:22:56.245Z,8160.00
2019-05-22T15:23:55.070Z,12544.00
2019-05-22T15:24:55.695Z,7920.00
2019-05-22T15:25:55.059Z,7624.00
2019-05-22T15:26:56.831Z,10112.00
2019-05-22T15:27:56.302Z,10808.00
2019-05-22T15:28:57.204Z,10320.00
2019-05-22T15:29:56.293Z,9748.00
2019-05-22T15:30:55.033Z,9400.00
2019-05-22T15:31:55.816Z,9368.00
2019-05-22T15:32:56.162Z,9080.00
2019-05-22T15:33:55.004Z,6260.00
2019-05-22T15:34:56.522Z,5292.00
2019-05-22T15:35:55.745Z,4664.00
2019-05-22T15:36:54.915Z,6324.00
2019-05-22T15:37:54.981Z,5216.00
2019-05-22T15:38:55.555Z,5196.00
2019-05-22T15:39:56.075Z,5868.00
2019-05-22T15:40:55.070Z,6556.00
2019-05-22T15:41:55.311Z,6608.00
2019-05-22T15:42:54.813Z,7496.00
2019-05-22T15:43:54.834Z,10544.00
2019-05-22T15:44:54.866Z,9552.00
2019-05-22T15:45:57.536Z,8160.00
2019-05-22T15:46:57.443Z,7268.00
2019-05-22T15:47:57.202Z,5012.00
2019-05-22T15:48:55.731Z,4424.00
2019-05-22T15:49:55.015Z,4532.00
2019-05-22T15:50:54.787Z,4892.00
2019-05-22T15:51:54.735Z,5260.00
2019-05-22T15:52:54.888Z,9348.00
2019-05-22T15:53:55.033Z,9924.00
2019-05-22T15:54:54.725Z,10520.00
2019-05-22T15:55:54.673Z,6672.00
2019-05-22T15:56:54.705Z,6316.00
2019-05-22T15:57:54.850Z,9684.00
2019-05-22T15:58:54.672Z,10024.00
2019-05-22T15:59:54.803Z,10096.00
2019-05-22T16:01:31.867Z,5320.00
2019-05-22T16:02:26.013Z,4584.00